createdAt,value
2018-11-10T00:14:42.332Z,6.80
2018-11-10T00:35:18.521Z,6.83
2018-11-10T00:55:58.810Z,12.97
2018-11-10T01:16:37.468Z,6.33
2018-11-10T01:37:17.755Z,7.13
2018-11-10T01:57:51.491Z,6.50
2018-11-10T02:18:32.279Z,8.73
2018-11-10T02:39:11.556Z,7.80
2018-11-10T02:59:46.626Z,8.20
2018-11-10T03:20:23.639Z,5.00
2018-11-10T03:40:59.842Z,6.93
2018-11-10T04:01:41.350Z,5.03
2018-11-10T04:22:21.642Z,10.63
2018-11-10T04:42:58.655Z,8.33
2018-11-10T05:03:37.308Z,18.60
2018-11-10T05:24:17.190Z,13.10
2018-11-10T05:44:57.884Z,18.23
2018-11-10T06:05:36.126Z,17.50
2018-11-10T06:26:17.526Z,14.00
2018-11-10T06:46:56.308Z,15.77
2018-11-10T07:07:38.634Z,23.00
2018-11-10T07:28:18.105Z,17.00
2018-11-10T07:49:01.273Z,22.33
2018-11-10T08:09:41.558Z,14.10
2018-11-10T08:30:21.020Z,8.80
2018-11-10T08:51:00.086Z,5.50
2018-11-10T09:11:39.555Z,4.13
2018-11-10T09:32:16.566Z,2.53
2018-11-10T09:52:54.812Z,2.77
2018-11-10T10:13:33.049Z,10.17
2018-11-10T10:34:13.352Z,3.50
2018-11-10T10:54:51.591Z,9.63
2018-11-10T11:15:29.090Z,4.43
2018-11-10T11:36:05.499Z,4.60
2018-11-10T11:56:44.671Z,5.13
2018-11-10T12:17:27.007Z,4.90
2018-11-10T12:38:08.118Z,3.70
2018-11-10T12:58:44.312Z,3.10
2018-11-10T13:19:24.601Z,2.30
2018-11-10T13:40:00.804Z,5.23
2018-11-10T14:00:35.347Z,1.50
2018-11-10T14:21:14.608Z,1.70
2018-11-10T14:41:53.480Z,1.50
2018-11-10T15:02:35.194Z,2.07
2018-11-10T15:23:14.057Z,1.50
2018-11-10T15:43:52.302Z,3.03
2018-11-10T16:04:30.943Z,1.93
2018-11-10T16:25:10.015Z,4.87
2018-11-10T16:45:51.124Z,3.23
2018-11-10T17:06:31.406Z,2.93
2018-11-10T17:27:10.945Z,5.27
2018-11-10T17:47:49.122Z,1.83
2018-11-10T18:08:27.362Z,2.03
2018-11-10T18:11:03.019Z,5.57
2018-11-10T18:31:38.372Z,2.33
2018-11-10T18:52:25.784Z,3.70
2018-11-10T19:31:07.303Z,2.10
2018-11-10T19:52:08.692Z,4.10
2018-11-10T20:34:04.162Z,3.53
2018-11-10T20:55:40.690Z,2.13
2018-11-10T21:16:23.240Z,3.53
2018-11-10T21:37:18.670Z,6.10
2018-11-10T21:57:57.944Z,2.43
2018-11-10T22:18:37.824Z,1.83
2018-11-10T22:39:17.495Z,1.17
2018-11-10T23:00:00.462Z,15.73
2018-11-10T23:20:36.026Z,1.27
2018-11-10T23:41:12.847Z,1.50
